sensor_id;sensor_type;location;lat;lon;timestamp;pressure;altitude;pressure_sealevel;temperature;humidity
74936;BME280;63501;55.570;37.488;2022-12-16T00:00:04;98650.28;;;-5.77;94.94
74936;BME280;63501;55.570;37.488;2022-12-16T00:02:31;98647.59;;;-5.77;95.29
74936;BME280;63501;55.570;37.488;2022-12-16T00:04:57;98628.56;;;-5.80;95.21
74936;BME280;63501;55.570;37.488;2022-12-16T00:07:23;98640.63;;;-5.78;95.17
74936;BME280;63501;55.570;37.488;2022-12-16T00:09:48;98636.84;;;-5.77;95.53
74936;BME280;63501;55.570;37.488;2022-12-16T00:12:14;98637.31;;;-5.75;94.74
74936;BME280;63501;55.570;37.488;2022-12-16T00:14:40;98623.25;;;-5.72;95.32
74936;BME280;63501;55.570;37.488;2022-12-16T00:17:05;98623.75;;;-5.70;95.75
74936;BME280;63501;55.570;37.488;2022-12-16T00:19:31;98618.34;;;-5.70;94.92
74936;BME280;63501;55.570;37.488;2022-12-16T00:21:57;98612.84;;;-5.65;95.18
74936;BME280;63501;55.570;37.488;2022-12-16T00:24:22;98602.88;;;-5.64;95.11
74936;BME280;63501;55.570;37.488;2022-12-16T00:26:48;98616.03;;;-5.63;95.89
74936;BME280;63501;55.570;37.488;2022-12-16T00:29:13;98608.75;;;-5.62;95.51
74936;BME280;63501;55.570;37.488;2022-12-16T00:31:39;98620.31;;;-5.62;95.24
74936;BME280;63501;55.570;37.488;2022-12-16T00:34:05;98625.41;;;-5.60;95.54
74936;BME280;63501;55.570;37.488;2022-12-16T00:36:30;98623.81;;;-5.61;95.36
74936;BME280;63501;55.570;37.488;2022-12-16T00:38:56;98597.69;;;-5.61;95.55
74936;BME280;63501;55.570;37.488;2022-12-16T00:41:22;98606.56;;;-5.60;95.54
74936;BME280;63501;55.570;37.488;2022-12-16T00:43:47;98608.34;;;-5.55;94.81
74936;BME280;63501;55.570;37.488;2022-12-16T00:46:13;98608.81;;;-5.53;95.52
74936;BME280;63501;55.570;37.488;2022-12-16T00:48:38;98604.22;;;-5.53;94.81
74936;BME280;63501;55.570;37.488;2022-12-16T00:51:04;98600.44;;;-5.52;95.17
74936;BME280;63501;55.570;37.488;2022-12-16T00:53:30;98600.63;;;-5.48;95.99
74936;BME280;63501;55.570;37.488;2022-12-16T00:56:07;98607.41;;;-5.51;95.31
74936;BME280;63501;55.570;37.488;2022-12-16T00:58:33;98596.03;;;-5.48;94.89
74936;BME280;63501;55.570;37.488;2022-12-16T01:03:27;98618.38;;;-5.47;95.12
74936;BME280;63501;55.570;37.488;2022-12-16T01:05:53;98606.50;;;-5.46;95.57
74936;BME280;63501;55.570;37.488;2022-12-16T01:08:18;98619.97;;;-5.46;95.81
74936;BME280;63501;55.570;37.488;2022-12-16T01:10:55;98625.53;;;-5.43;95.06
74936;BME280;63501;55.570;37.488;2022-12-16T01:13:22;98626.34;;;-5.42;95.85
74936;BME280;63501;55.570;37.488;2022-12-16T01:15:49;98620.63;;;-5.41;95.32
74936;BME280;63501;55.570;37.488;2022-12-16T01:18:16;98627.59;;;-5.40;95.63
74936;BME280;63501;55.570;37.488;2022-12-16T01:20:41;98617.94;;;-5.41;95.21
74936;BME280;63501;55.570;37.488;2022-12-16T01:23:07;98632.72;;;-5.38;95.86
74936;BME280;63501;55.570;37.488;2022-12-16T01:25:33;98618.91;;;-5.37;95.33
74936;BME280;63501;55.570;37.488;2022-12-16T01:27:59;98615.91;;;-5.35;95.43
74936;BME280;63501;55.570;37.488;2022-12-16T01:30:24;98628.28;;;-5.34;95.85
74936;BME280;63501;55.570;37.488;2022-12-16T01:32:50;98628.91;;;-5.37;95.50
74936;BME280;63501;55.570;37.488;2022-12-16T01:35:16;98623.41;;;-5.32;95.38
74936;BME280;63501;55.570;37.488;2022-12-16T01:37:42;98623.88;;;-5.30;95.86
74936;BME280;63501;55.570;37.488;2022-12-16T01:40:16;98640.03;;;-5.30;95.75
74936;BME280;63501;55.570;37.488;2022-12-16T01:42:43;98629.75;;;-5.28;95.52
74936;BME280;63501;55.570;37.488;2022-12-16T01:45:41;98634.06;;;-5.27;95.07
74936;BME280;63501;55.570;37.488;2022-12-16T01:48:43;98630.72;;;-5.24;95.71
74936;BME280;63501;55.570;37.488;2022-12-16T01:53:55;98623.16;;;-5.22;95.50
74936;BME280;63501;55.570;37.488;2022-12-16T01:56:23;98644.41;;;-5.20;95.48
74936;BME280;63501;55.570;37.488;2022-12-16T01:58:51;98619.63;;;-5.22;95.86
74936;BME280;63501;55.570;37.488;2022-12-16T02:01:18;98620.47;;;-5.22;95.53
74936;BME280;63501;55.570;37.488;2022-12-16T02:03:44;98641.88;;;-5.17;95.77
74936;BME280;63501;55.570;37.488;2022-12-16T02:06:10;98626.19;;;-5.15;95.52
74936;BME280;63501;55.570;37.488;2022-12-16T02:08:36;98637.78;;;-5.14;95.94
74936;BME280;63501;55.570;37.488;2022-12-16T02:14:32;98626.88;;;-5.09;95.96
74936;BME280;63501;55.570;37.488;2022-12-16T02:28:10;98638.91;;;-5.07;96.06
74936;BME280;63501;55.570;37.488;2022-12-16T02:38:59;98642.28;;;-5.01;95.40
74936;BME280;63501;55.570;37.488;2022-12-16T02:44:47;98643.72;;;-5.03;96.16
74936;BME280;63501;55.570;37.488;2022-12-16T02:47:17;98636.09;;;-5.01;95.40
74936;BME280;63501;55.570;37.488;2022-12-16T02:49:46;98639.28;;;-4.99;96.08
74936;BME280;63501;55.570;37.488;2022-12-16T02:52:13;98636.28;;;-4.98;95.99
74936;BME280;63501;55.570;37.488;2022-12-16T02:54:39;98645.66;;;-4.95;95.96
74936;BME280;63501;55.570;37.488;2022-12-16T02:59:58;98652.03;;;-4.91;96.28
74936;BME280;63501;55.570;37.488;2022-12-16T03:07:45;98646.00;;;-4.88;96.07
74936;BME280;63501;55.570;37.488;2022-12-16T03:10:18;98645.69;;;-4.87;95.92
74936;BME280;63501;55.570;37.488;2022-12-16T03:12:45;98644.13;;;-4.88;96.05
74936;BME280;63501;55.570;37.488;2022-12-16T03:15:14;98656.50;;;-4.87;96.11
74936;BME280;63501;55.570;37.488;2022-12-16T03:17:43;98642.69;;;-4.85;95.74
74936;BME280;63501;55.570;37.488;2022-12-16T03:20:34;98643.28;;;-4.88;95.83
74936;BME280;63501;55.570;37.488;2022-12-16T03:23:02;98657.75;;;-4.84;95.54
74936;BME280;63501;55.570;37.488;2022-12-16T03:25:30;98654.28;;;-4.85;95.96
74936;BME280;63501;55.570;37.488;2022-12-16T03:27:59;98662.22;;;-4.80;96.07
74936;BME280;63501;55.570;37.488;2022-12-16T03:30:35;98656.53;;;-4.78;96.46
74936;BME280;63501;55.570;37.488;2022-12-16T03:33:15;98661.31;;;-4.75;95.89
74936;BME280;63501;55.570;37.488;2022-12-16T03:35:49;98664.47;;;-4.73;95.83
74936;BME280;63501;55.570;37.488;2022-12-16T03:38:17;98672.25;;;-4.71;96.21
74936;BME280;63501;55.570;37.488;2022-12-16T03:40:44;98690.53;;;-4.68;95.63
74936;BME280;63501;55.570;37.488;2022-12-16T03:43:10;98674.66;;;-4.70;95.38
74936;BME280;63501;55.570;37.488;2022-12-16T03:45:42;98680.06;;;-4.70;95.55
74936;BME280;63501;55.570;37.488;2022-12-16T03:48:11;98675.13;;;-4.68;95.89
74936;BME280;63501;55.570;37.488;2022-12-16T03:50:38;98682.63;;;-4.65;95.99
74936;BME280;63501;55.570;37.488;2022-12-16T03:53:04;98688.03;;;-4.65;96.25
74936;BME280;63501;55.570;37.488;2022-12-16T03:55:30;98698.97;;;-4.61;96.12
74936;BME280;63501;55.570;37.488;2022-12-16T03:57:57;98694.88;;;-4.59;95.32
74936;BME280;63501;55.570;37.488;2022-12-16T04:00:24;98702.97;;;-4.59;96.45
74936;BME280;63501;55.570;37.488;2022-12-16T04:02:50;98698.38;;;-4.58;95.75
74936;BME280;63501;55.570;37.488;2022-12-16T04:05:15;98710.25;;;-4.59;96.07
74936;BME280;63501;55.570;37.488;2022-12-16T04:07:41;98713.75;;;-4.59;95.87
74936;BME280;63501;55.570;37.488;2022-12-16T04:10:07;98718.66;;;-4.61;96.38
74936;BME280;63501;55.570;37.488;2022-12-16T04:12:33;98714.03;;;-4.60;96.30
74936;BME280;63501;55.570;37.488;2022-12-16T04:15:18;98718.34;;;-4.59;96.00
74936;BME280;63501;55.570;37.488;2022-12-16T04:18:02;98721.06;;;-4.59;96.12
74936;BME280;63501;55.570;37.488;2022-12-16T04:21:03;98727.41;;;-4.55;95.82
74936;BME280;63501;55.570;37.488;2022-12-16T04:23:54;98736.28;;;-4.55;96.46
74936;BME280;63501;55.570;37.488;2022-12-16T04:26:40;98750.59;;;-4.54;96.26
74936;BME280;63501;55.570;37.488;2022-12-16T04:29:25;98752.97;;;-4.53;95.37
74936;BME280;63501;55.570;37.488;2022-12-16T04:31:51;98754.25;;;-4.50;95.80
74936;BME280;63501;55.570;37.488;2022-12-16T04:34:17;98751.44;;;-4.45;95.88
74936;BME280;63501;55.570;37.488;2022-12-16T04:36:59;98753.19;;;-4.40;96.54
74936;BME280;63501;55.570;37.488;2022-12-16T04:39:45;98758.59;;;-4.40;95.36
74936;BME280;63501;55.570;37.488;2022-12-16T04:42:30;98763.38;;;-4.37;96.48
74936;BME280;63501;55.570;37.488;2022-12-16T04:45:14;98769.25;;;-4.35;96.40
74936;BME280;63501;55.570;37.488;2022-12-16T04:47:59;98770.25;;;-4.31;96.07
74936;BME280;63501;55.570;37.488;2022-12-16T04:50:44;98778.03;;;-4.30;96.29
74936;BME280;63501;55.570;37.488;2022-12-16T04:53:30;98779.81;;;-4.25;95.88
74936;BME280;63501;55.570;37.488;2022-12-16T04:56:14;98781.56;;;-4.20;96.53
74936;BME280;63501;55.570;37.488;2022-12-16T04:58:58;98788.25;;;-4.18;96.63
74936;BME280;63501;55.570;37.488;2022-12-16T05:01:43;98793.81;;;-4.14;96.24
74936;BME280;63501;55.570;37.488;2022-12-16T05:04:28;98788.59;;;-4.11;95.68
74936;BME280;63501;55.570;37.488;2022-12-16T05:07:12;98796.06;;;-4.08;95.64
74936;BME280;63501;55.570;37.488;2022-12-16T05:09:58;98799.75;;;-4.04;96.30
74936;BME280;63501;55.570;37.488;2022-12-16T05:12:42;98805.63;;;-4.02;95.94
74936;BME280;63501;55.570;37.488;2022-12-16T05:15:26;98808.53;;;-3.98;95.53
74936;BME280;63501;55.570;37.488;2022-12-16T05:18:13;98817.56;;;-3.94;95.65
74936;BME280;63501;55.570;37.488;2022-12-16T05:20:57;98820.59;;;-3.95;96.71
74936;BME280;63501;55.570;37.488;2022-12-16T05:23:42;98822.81;;;-3.97;96.71
74936;BME280;63501;55.570;37.488;2022-12-16T05:26:26;98827.25;;;-3.93;96.45
74936;BME280;63501;55.570;37.488;2022-12-16T05:29:13;98833.97;;;-3.90;96.38
74936;BME280;63501;55.570;37.488;2022-12-16T05:31:57;98834.75;;;-3.90;96.46
74936;BME280;63501;55.570;37.488;2022-12-16T05:34:41;98841.88;;;-3.94;96.57
74936;BME280;63501;55.570;37.488;2022-12-16T05:37:25;98846.81;;;-3.96;95.81
74936;BME280;63501;55.570;37.488;2022-12-16T05:40:10;98845.22;;;-3.97;95.88
74936;BME280;63501;55.570;37.488;2022-12-16T05:42:55;98861.88;;;-3.95;96.38
74936;BME280;63501;55.570;37.488;2022-12-16T05:45:39;98859.31;;;-4.00;96.85
74936;BME280;63501;55.570;37.488;2022-12-16T05:48:24;98865.84;;;-4.01;96.28
74936;BME280;63501;55.570;37.488;2022-12-16T05:51:08;98871.03;;;-4.05;96.04
74936;BME280;63501;55.570;37.488;2022-12-16T05:53:52;98875.66;;;-4.05;96.65
74936;BME280;63501;55.570;37.488;2022-12-16T05:56:41;98886.28;;;-4.09;96.62
74936;BME280;63501;55.570;37.488;2022-12-16T05:59:25;98899.78;;;-4.09;96.50
74936;BME280;63501;55.570;37.488;2022-12-16T06:02:10;98898.16;;;-4.10;96.18
74936;BME280;63501;55.570;37.488;2022-12-16T06:04:54;98906.09;;;-4.13;96.08
74936;BME280;63501;55.570;37.488;2022-12-16T06:07:38;98911.50;;;-4.13;96.22
74936;BME280;63501;55.570;37.488;2022-12-16T06:10:22;98911.66;;;-4.10;95.66
74936;BME280;63501;55.570;37.488;2022-12-16T06:13:20;98927.56;;;-4.08;95.94
74936;BME280;63501;55.570;37.488;2022-12-16T06:16:04;98939.78;;;-4.11;96.29
74936;BME280;63501;55.570;37.488;2022-12-16T06:18:48;98942.34;;;-4.06;96.53
74936;BME280;63501;55.570;37.488;2022-12-16T06:21:33;98945.56;;;-4.04;96.11
74936;BME280;63501;55.570;37.488;2022-12-16T06:24:17;98952.03;;;-4.05;95.74
74936;BME280;63501;55.570;37.488;2022-12-16T06:27:01;98958.75;;;-4.02;96.55
74936;BME280;63501;55.570;37.488;2022-12-16T06:29:45;98965.41;;;-4.00;96.72
74936;BME280;63501;55.570;37.488;2022-12-16T06:32:30;98973.53;;;-4.00;96.58
74936;BME280;63501;55.570;37.488;2022-12-16T06:35:14;98977.09;;;-3.90;96.43
74936;BME280;63501;55.570;37.488;2022-12-16T06:37:58;98987.91;;;-3.90;96.02
74936;BME280;63501;55.570;37.488;2022-12-16T06:40:42;98998.38;;;-3.89;96.06
74936;BME280;63501;55.570;37.488;2022-12-16T06:43:26;99006.69;;;-3.85;95.35
74936;BME280;63501;55.570;37.488;2022-12-16T06:46:10;99018.47;;;-3.81;95.70
74936;BME280;63501;55.570;37.488;2022-12-16T06:48:55;99029.75;;;-3.79;96.09
74936;BME280;63501;55.570;37.488;2022-12-16T06:51:39;99037.06;;;-3.80;94.41
74936;BME280;63501;55.570;37.488;2022-12-16T06:54:23;99039.78;;;-3.80;94.40
74936;BME280;63501;55.570;37.488;2022-12-16T06:57:07;99048.34;;;-3.78;94.53
74936;BME280;63501;55.570;37.488;2022-12-16T06:59:51;99047.75;;;-3.75;95.21
74936;BME280;63501;55.570;37.488;2022-12-16T07:02:36;99050.91;;;-3.81;94.62
74936;BME280;63501;55.570;37.488;2022-12-16T07:05:20;99061.41;;;-3.93;95.35
74936;BME280;63501;55.570;37.488;2022-12-16T07:08:04;99069.16;;;-4.01;95.81
74936;BME280;63501;55.570;37.488;2022-12-16T07:10:48;99065.66;;;-4.01;95.21
74936;BME280;63501;55.570;37.488;2022-12-16T07:13:32;99079.25;;;-4.06;94.80
74936;BME280;63501;55.570;37.488;2022-12-16T07:16:17;99092.75;;;-4.06;95.13
74936;BME280;63501;55.570;37.488;2022-12-16T07:19:01;99086.34;;;-4.10;95.87
74936;BME280;63501;55.570;37.488;2022-12-16T07:21:45;99109.97;;;-4.16;95.30
74936;BME280;63501;55.570;37.488;2022-12-16T07:24:29;99118.16;;;-4.21;95.14
74936;BME280;63501;55.570;37.488;2022-12-16T07:27:14;99127.69;;;-4.23;95.53
74936;BME280;63501;55.570;37.488;2022-12-16T07:29:58;99133.28;;;-4.20;94.75
74936;BME280;63501;55.570;37.488;2022-12-16T07:32:42;99157.06;;;-4.22;95.52
74936;BME280;63501;55.570;37.488;2022-12-16T07:35:26;99150.97;;;-4.28;95.49
74936;BME280;63501;55.570;37.488;2022-12-16T07:38:10;99161.28;;;-4.30;95.37
74936;BME280;63501;55.570;37.488;2022-12-16T07:40:54;99169.69;;;-4.31;94.31
74936;BME280;63501;55.570;37.488;2022-12-16T07:43:39;99179.38;;;-4.30;94.28
74936;BME280;63501;55.570;37.488;2022-12-16T07:46:23;99180.28;;;-4.35;94.50
74936;BME280;63501;55.570;37.488;2022-12-16T07:49:07;99196.84;;;-4.41;95.29
74936;BME280;63501;55.570;37.488;2022-12-16T07:51:51;99195.75;;;-4.40;94.45
74936;BME280;63501;55.570;37.488;2022-12-16T07:54:35;99190.94;;;-4.43;94.86
74936;BME280;63501;55.570;37.488;2022-12-16T07:57:19;99195.75;;;-4.40;95.00
74936;BME280;63501;55.570;37.488;2022-12-16T08:00:04;99204.34;;;-4.38;95.18
74936;BME280;63501;55.570;37.488;2022-12-16T08:02:55;99211.16;;;-4.41;94.54
74936;BME280;63501;55.570;37.488;2022-12-16T08:05:39;99219.34;;;-4.46;95.18
74936;BME280;63501;55.570;37.488;2022-12-16T08:08:24;99222.34;;;-4.47;95.04
74936;BME280;63501;55.570;37.488;2022-12-16T08:11:08;99222.34;;;-4.47;95.24
74936;BME280;63501;55.570;37.488;2022-12-16T08:13:52;99220.53;;;-4.38;95.27
74936;BME280;63501;55.570;37.488;2022-12-16T08:16:36;99226.16;;;-4.35;94.99
74936;BME280;63501;55.570;37.488;2022-12-16T08:19:20;99227.13;;;-4.44;95.05
74936;BME280;63501;55.570;37.488;2022-12-16T08:22:04;99235.91;;;-4.53;95.16
74936;BME280;63501;55.570;37.488;2022-12-16T08:24:49;99244.91;;;-4.57;95.26
74936;BME280;63501;55.570;37.488;2022-12-16T08:27:33;99249.88;;;-4.64;95.25
74936;BME280;63501;55.570;37.488;2022-12-16T08:30:17;99257.91;;;-4.78;95.59
74936;BME280;63501;55.570;37.488;2022-12-16T08:33:01;99262.00;;;-4.81;95.30
74936;BME280;63501;55.570;37.488;2022-12-16T08:35:46;99259.47;;;-4.91;95.25
74936;BME280;63501;55.570;37.488;2022-12-16T08:38:30;99272.72;;;-4.94;95.46
74936;BME280;63501;55.570;37.488;2022-12-16T08:41:14;99272.91;;;-5.04;95.39
74936;BME280;63501;55.570;37.488;2022-12-16T08:43:58;99282.66;;;-5.09;95.49
74936;BME280;63501;55.570;37.488;2022-12-16T08:46:42;99288.84;;;-5.08;95.66
74936;BME280;63501;55.570;37.488;2022-12-16T08:49:26;99288.63;;;-5.12;95.38
74936;BME280;63501;55.570;37.488;2022-12-16T08:52:10;99288.13;;;-5.14;95.83
74936;BME280;63501;55.570;37.488;2022-12-16T08:54:54;99303.19;;;-5.13;95.35
74936;BME280;63501;55.570;37.488;2022-12-16T08:57:39;99302.19;;;-5.17;95.23
74936;BME280;63501;55.570;37.488;2022-12-16T09:00:23;99307.06;;;-5.19;95.55
74936;BME280;63501;55.570;37.488;2022-12-16T09:03:07;99314.06;;;-5.18;95.46
74936;BME280;63501;55.570;37.488;2022-12-16T09:05:57;99319.88;;;-5.11;95.21
74936;BME280;63501;55.570;37.488;2022-12-16T09:08:41;99321.78;;;-5.11;95.52
74936;BME280;63501;55.570;37.488;2022-12-16T09:11:26;99317.72;;;-5.09;96.13
74936;BME280;63501;55.570;37.488;2022-12-16T09:14:10;99336.22;;;-5.02;95.51
74936;BME280;63501;55.570;37.488;2022-12-16T09:16:54;99335.34;;;-4.97;94.85
74936;BME280;63501;55.570;37.488;2022-12-16T09:19:38;99338.47;;;-4.90;95.13
74936;BME280;63501;55.570;37.488;2022-12-16T09:22:22;99340.00;;;-4.84;95.69
74936;BME280;63501;55.570;37.488;2022-12-16T09:25:06;99336.84;;;-4.72;95.28
74936;BME280;63501;55.570;37.488;2022-12-16T09:27:51;99333.50;;;-4.64;94.53
74936;BME280;63501;55.570;37.488;2022-12-16T09:30:35;99341.72;;;-4.56;94.43
74936;BME280;63501;55.570;37.488;2022-12-16T09:33:19;99354.03;;;-4.49;94.05
74936;BME280;63501;55.570;37.488;2022-12-16T09:36:03;99352.97;;;-4.48;94.85
74936;BME280;63501;55.570;37.488;2022-12-16T09:38:48;99358.56;;;-4.45;95.21
74936;BME280;63501;55.570;37.488;2022-12-16T09:45:13;99359.09;;;-4.43;95.63
74936;BME280;63501;55.570;37.488;2022-12-16T09:51:10;99377.31;;;-4.72;95.08
74936;BME280;63501;55.570;37.488;2022-12-16T09:53:55;99381.97;;;-4.78;95.34
74936;BME280;63501;55.570;37.488;2022-12-16T09:56:41;99383.22;;;-4.89;95.06
74936;BME280;63501;55.570;37.488;2022-12-16T09:59:34;99392.53;;;-5.00;95.35
74936;BME280;63501;55.570;37.488;2022-12-16T10:02:21;99388.38;;;-5.12;95.14
74936;BME280;63501;55.570;37.488;2022-12-16T10:05:12;99401.28;;;-5.09;94.56
74936;BME280;63501;55.570;37.488;2022-12-16T10:08:52;99418.56;;;-5.10;94.67
74936;BME280;63501;55.570;37.488;2022-12-16T10:11:41;99417.69;;;-5.29;95.04
74936;BME280;63501;55.570;37.488;2022-12-16T10:14:39;99420.28;;;-5.43;95.02
74936;BME280;63501;55.570;37.488;2022-12-16T10:17:25;99428.22;;;-5.56;94.62
74936;BME280;63501;55.570;37.488;2022-12-16T10:29:29;99451.94;;;-5.82;94.15
74936;BME280;63501;55.570;37.488;2022-12-16T10:35:40;99457.78;;;-5.75;94.25
74936;BME280;63501;55.570;37.488;2022-12-16T10:41:16;99462.69;;;-5.53;93.98
74936;BME280;63501;55.570;37.488;2022-12-16T10:44:06;99469.88;;;-5.44;94.93
74936;BME280;63501;55.570;37.488;2022-12-16T10:46:56;99478.13;;;-5.35;93.62
74936;BME280;63501;55.570;37.488;2022-12-16T10:49:40;99471.31;;;-5.27;93.20
74936;BME280;63501;55.570;37.488;2022-12-16T10:52:25;99478.72;;;-5.14;93.65
74936;BME280;63501;55.570;37.488;2022-12-16T10:55:46;99487.53;;;-5.09;93.46
74936;BME280;63501;55.570;37.488;2022-12-16T10:58:46;99482.59;;;-5.01;92.59
74936;BME280;63501;55.570;37.488;2022-12-16T11:01:34;99492.78;;;-4.93;91.81
74936;BME280;63501;55.570;37.488;2022-12-16T11:04:33;99495.13;;;-4.87;91.50
74936;BME280;63501;55.570;37.488;2022-12-16T11:07:28;99506.91;;;-4.83;90.79
74936;BME280;63501;55.570;37.488;2022-12-16T11:10:35;99515.75;;;-4.77;90.68
74936;BME280;63501;55.570;37.488;2022-12-16T11:13:30;99514.88;;;-4.72;92.10
74936;BME280;63501;55.570;37.488;2022-12-16T11:16:35;99521.63;;;-4.70;92.05
74936;BME280;63501;55.570;37.488;2022-12-16T11:19:23;99537.78;;;-4.70;90.80
74936;BME280;63501;55.570;37.488;2022-12-16T11:30:51;99560.53;;;-4.76;91.46
74936;BME280;63501;55.570;37.488;2022-12-16T11:33:38;99558.63;;;-4.75;90.37
74936;BME280;63501;55.570;37.488;2022-12-16T11:36:23;99566.94;;;-4.72;91.33
74936;BME280;63501;55.570;37.488;2022-12-16T11:39:18;99573.97;;;-4.71;90.96
74936;BME280;63501;55.570;37.488;2022-12-16T11:42:04;99582.56;;;-4.69;91.25
74936;BME280;63501;55.570;37.488;2022-12-16T11:44:52;99587.97;;;-4.69;91.39
74936;BME280;63501;55.570;37.488;2022-12-16T11:47:46;99593.06;;;-4.67;91.27
74936;BME280;63501;55.570;37.488;2022-12-16T11:50:35;99594.09;;;-4.63;91.22
74936;BME280;63501;55.570;37.488;2022-12-16T11:56:05;99605.25;;;-4.70;92.16
74936;BME280;63501;55.570;37.488;2022-12-16T11:58:52;99612.78;;;-4.72;92.01
74936;BME280;63501;55.570;37.488;2022-12-16T12:01:46;99616.59;;;-4.73;91.39
74936;BME280;63501;55.570;37.488;2022-12-16T12:04:31;99605.91;;;-4.83;91.95
74936;BME280;63501;55.570;37.488;2022-12-16T12:13:40;99612.31;;;-5.03;93.16
74936;BME280;63501;55.570;37.488;2022-12-16T12:16:41;99621.75;;;-5.06;93.57
74936;BME280;63501;55.570;37.488;2022-12-16T12:19:50;99622.84;;;-5.07;93.41
74936;BME280;63501;55.570;37.488;2022-12-16T12:22:38;99621.25;;;-5.08;92.29
74936;BME280;63501;55.570;37.488;2022-12-16T12:25:33;99622.84;;;-5.07;93.25
74936;BME280;63501;55.570;37.488;2022-12-16T12:31:32;99632.78;;;-5.02;91.97
74936;BME280;63501;55.570;37.488;2022-12-16T12:41:02;99636.66;;;-5.13;92.11
74936;BME280;63501;55.570;37.488;2022-12-16T12:44:10;99642.84;;;-5.13;92.80
74936;BME280;63501;55.570;37.488;2022-12-16T12:47:04;99646.66;;;-5.14;92.25
74936;BME280;63501;55.570;37.488;2022-12-16T12:59:21;99677.88;;;-5.08;92.42
74936;BME280;63501;55.570;37.488;2022-12-16T13:02:14;99672.25;;;-5.16;92.74
74936;BME280;63501;55.570;37.488;2022-12-16T13:05:01;99676.63;;;-5.20;92.80
74936;BME280;63501;55.570;37.488;2022-12-16T13:07:45;99680.66;;;-5.23;93.24
74936;BME280;63501;55.570;37.488;2022-12-16T13:10:33;99687.72;;;-5.27;93.60
74936;BME280;63501;55.570;37.488;2022-12-16T13:13:27;99684.50;;;-5.29;93.39
74936;BME280;63501;55.570;37.488;2022-12-16T13:22:36;99693.69;;;-5.35;93.57
74936;BME280;63501;55.570;37.488;2022-12-16T13:28:25;99708.19;;;-5.26;93.31
74936;BME280;63501;55.570;37.488;2022-12-16T13:31:12;99712.78;;;-5.26;93.34
74936;BME280;63501;55.570;37.488;2022-12-16T13:34:03;99720.03;;;-5.22;93.16
74936;BME280;63501;55.570;37.488;2022-12-16T13:36:56;99730.84;;;-5.27;93.58
74936;BME280;63501;55.570;37.488;2022-12-16T13:39:42;99739.22;;;-5.34;94.15
74936;BME280;63501;55.570;37.488;2022-12-16T13:45:34;99744.44;;;-5.47;94.50
74936;BME280;63501;55.570;37.488;2022-12-16T13:48:26;99749.34;;;-5.54;94.43
74936;BME280;63501;55.570;37.488;2022-12-16T13:54:36;99776.84;;;-5.63;94.35
74936;BME280;63501;55.570;37.488;2022-12-16T13:57:24;99772.31;;;-5.72;94.55
74936;BME280;63501;55.570;37.488;2022-12-16T14:00:19;99769.91;;;-5.79;94.32
74936;BME280;63501;55.570;37.488;2022-12-16T14:03:11;99769.91;;;-5.79;94.43
74936;BME280;63501;55.570;37.488;2022-12-16T14:05:56;99758.63;;;-5.86;94.64
74936;BME280;63501;55.570;37.488;2022-12-16T14:08:41;99778.28;;;-5.86;94.42
74936;BME280;63501;55.570;37.488;2022-12-16T14:12:21;99775.88;;;-5.87;94.50
74936;BME280;63501;55.570;37.488;2022-12-16T14:14:46;99786.38;;;-5.91;94.80
74936;BME280;63501;55.570;37.488;2022-12-16T14:17:37;99785.88;;;-5.93;94.54
74936;BME280;63501;55.570;37.488;2022-12-16T14:21:10;99780.50;;;-5.98;94.79
74936;BME280;63501;55.570;37.488;2022-12-16T14:23:56;99790.19;;;-5.97;93.96
74936;BME280;63501;55.570;37.488;2022-12-16T14:26:43;99794.25;;;-5.99;94.45
74936;BME280;63501;55.570;37.488;2022-12-16T14:29:30;99794.78;;;-5.97;94.64
74936;BME280;63501;55.570;37.488;2022-12-16T14:35:14;99800.72;;;-6.00;94.21
74936;BME280;63501;55.570;37.488;2022-12-16T14:38:33;99794.53;;;-6.06;94.69
74936;BME280;63501;55.570;37.488;2022-12-16T14:41:21;99796.97;;;-6.09;94.86
74936;BME280;63501;55.570;37.488;2022-12-16T14:44:24;99799.66;;;-6.15;94.23
74936;BME280;63501;55.570;37.488;2022-12-16T14:47:20;99805.03;;;-6.15;94.85
74936;BME280;63501;55.570;37.488;2022-12-16T14:50:19;99812.03;;;-6.19;95.13
74936;BME280;63501;55.570;37.488;2022-12-16T14:53:18;99812.84;;;-6.23;94.69
74936;BME280;63501;55.570;37.488;2022-12-16T14:59:27;99816.34;;;-6.18;94.36
74936;BME280;63501;55.570;37.488;2022-12-16T15:02:27;99816.09;;;-6.11;94.59
74936;BME280;63501;55.570;37.488;2022-12-16T15:05:13;99819.88;;;-6.17;94.07
74936;BME280;63501;55.570;37.488;2022-12-16T15:07:58;99829.56;;;-6.21;94.59
74936;BME280;63501;55.570;37.488;2022-12-16T15:10:43;99833.56;;;-6.24;94.57
74936;BME280;63501;55.570;37.488;2022-12-16T15:13:28;99826.59;;;-6.30;94.42
74936;BME280;63501;55.570;37.488;2022-12-16T15:16:27;99836.81;;;-6.32;94.77
74936;BME280;63501;55.570;37.488;2022-12-16T15:19:18;99840.03;;;-6.30;94.94
74936;BME280;63501;55.570;37.488;2022-12-16T15:22:04;99835.22;;;-6.28;94.68
74936;BME280;63501;55.570;37.488;2022-12-16T15:24:48;99841.13;;;-6.26;94.58
74936;BME280;63501;55.570;37.488;2022-12-16T15:27:36;99836.53;;;-6.25;94.63
74936;BME280;63501;55.570;37.488;2022-12-16T15:30:40;99838.16;;;-6.24;94.58
74936;BME280;63501;55.570;37.488;2022-12-16T15:33:29;99841.94;;;-6.25;94.01
74936;BME280;63501;55.570;37.488;2022-12-16T15:36:25;99846.22;;;-6.19;94.84
74936;BME280;63501;55.570;37.488;2022-12-16T15:42:00;99839.75;;;-6.13;94.70
74936;BME280;63501;55.570;37.488;2022-12-16T15:44:47;99833.28;;;-6.12;94.27
74936;BME280;63501;55.570;37.488;2022-12-16T15:47:32;99823.88;;;-6.09;94.88
74936;BME280;63501;55.570;37.488;2022-12-16T15:50:22;99832.47;;;-6.02;94.26
74936;BME280;63501;55.570;37.488;2022-12-16T15:53:32;99822.78;;;-5.98;94.64
74936;BME280;63501;55.570;37.488;2022-12-16T15:56:33;99819.00;;;-5.92;94.15
74936;BME280;63501;55.570;37.488;2022-12-16T16:02:22;99834.00;;;-5.81;94.19
74936;BME280;63501;55.570;37.488;2022-12-16T16:05:13;99832.91;;;-5.75;94.05
74936;BME280;63501;55.570;37.488;2022-12-16T16:07:58;99832.91;;;-5.70;93.65
74936;BME280;63501;55.570;37.488;2022-12-16T16:11:02;99835.59;;;-5.65;93.50
74936;BME280;63501;55.570;37.488;2022-12-16T16:13:49;99832.06;;;-5.60;93.65
74936;BME280;63501;55.570;37.488;2022-12-16T16:16:33;99847.41;;;-5.55;93.38